Time;durP1;ratioP1;P1;durP2;ratioP2;P2;SDS_P1;SDS_P2;PMS_P1;PMS_P2;Temp;Humidity;BMP_temperature;BMP_pressure;BME280_temperature;BME280_humidity;BME280_pressure;Samples;Min_cycle;Max_cycle;Signal;HPM_P1;HPM_P2
2020/12/02 00:02:00;;;;;;;19.73;13.15;;;;;;;1.59;83.48;101537.82;1730800;82;21009;-53
2020/12/02 00:04:27;;;;;;;21.68;15.05;;;;;;;1.57;83.49;101534.47;1730807;82;21623;-53
2020/12/02 00:06:54;;;;;;;22.82;15.85;;;;;;;1.54;83.57;101531.63;1730871;82;21045;-54
2020/12/02 00:09:23;;;;;;;21.05;15.43;;;;;;;1.54;83.71;101535.68;1730853;82;21213;-54
2020/12/02 00:11:50;;;;;;;21.25;14.28;;;;;;;1.54;83.72;101537.90;1730789;82;21049;-53
2020/12/02 00:14:23;;;;;;;17.45;12.70;;;;;;;1.57;83.65;101545.30;1730810;82;21026;-53
2020/12/02 00:16:51;;;;;;;17.77;13.00;;;;;;;1.55;83.62;101536.84;1730748;82;21045;-53
2020/12/02 00:19:19;;;;;;;18.37;13.10;;;;;;;1.55;83.55;101542.78;1730865;82;21049;-53
2020/12/02 00:22:09;;;;;;;19.95;15.23;;;;;;;1.53;83.50;101542.14;1736094;80;21277;-53
2020/12/02 00:24:37;;;;;;;23.30;15.70;;;;;;;1.54;83.58;101546.02;1754335;81;21054;-51
2020/12/02 00:27:18;;;;;;;19.80;13.53;;;;;;;1.57;83.63;101547.49;1754226;81;21086;-51
2020/12/02 00:29:46;;;;;;;20.52;13.35;;;;;;;1.59;83.54;101545.45;1753730;81;21035;-51
2020/12/02 00:32:32;;;;;;;24.52;14.23;;;;;;;1.55;83.45;101542.27;1754073;81;21688;-51
2020/12/02 00:35:00;;;;;;;18.77;14.15;;;;;;;1.51;83.32;101540.12;1754383;81;21199;-51
2020/12/02 00:37:29;;;;;;;19.55;14.15;;;;;;;1.48;83.43;101544.56;1754120;81;21526;-51
2020/12/02 00:39:57;;;;;;;19.42;13.05;;;;;;;1.44;83.52;101541.36;1754148;81;21046;-51
2020/12/02 00:42:25;;;;;;;19.32;13.32;;;;;;;1.43;83.62;101544.27;1754273;81;21012;-51
2020/12/02 00:44:53;;;;;;;18.05;12.58;;;;;;;1.45;83.76;101538.17;1754309;81;21018;-52
2020/12/02 00:47:23;;;;;;;21.02;14.33;;;;;;;1.48;83.71;101543.20;1754312;81;21381;-51
2020/12/02 00:49:53;;;;;;;19.80;13.38;;;;;;;1.49;83.67;101544.38;1754478;81;20995;-52
2020/12/02 00:52:23;;;;;;;20.75;14.58;;;;;;;1.47;83.62;101548.28;1765082;80;20978;-52
2020/12/02 00:54:50;;;;;;;20.17;12.90;;;;;;;1.47;83.66;101552.34;1774931;80;21046;-51
2020/12/02 00:57:24;;;;;;;18.32;13.05;;;;;;;1.47;83.60;101549.64;1774888;80;21062;-51
2020/12/02 00:59:55;;;;;;;20.08;13.05;;;;;;;1.44;83.63;101544.59;1775310;80;21214;-51
2020/12/02 01:02:36;;;;;;;22.32;14.20;;;;;;;1.45;83.54;101547.64;1778521;80;21025;-51
2020/12/02 01:05:11;;;;;;;20.15;15.05;;;;;;;1.46;83.47;101544.75;1778512;80;21018;-52
2020/12/02 01:07:42;;;;;;;22.00;15.18;;;;;;;1.44;83.28;101540.54;1777820;80;21025;-51
2020/12/02 01:10:10;;;;;;;20.17;14.18;;;;;;;1.42;83.22;101542.60;1778477;80;21014;-51
2020/12/02 01:12:38;;;;;;;23.35;17.17;;;;;;;1.40;83.22;101533.80;1778612;80;21364;-50
2020/12/02 01:15:07;;;;;;;22.37;14.40;;;;;;;1.37;83.16;101537.72;1778488;80;21025;-51
2020/12/02 01:17:35;;;;;;;21.57;15.13;;;;;;;1.36;83.12;101527.94;1778570;80;21518;-51
2020/12/02 01:20:10;;;;;;;20.23;14.40;;;;;;;1.34;83.17;101536.25;1778346;80;21057;-51
2020/12/02 01:22:40;;;;;;;24.20;16.42;;;;;;;1.36;83.20;101532.83;1778450;80;21053;-51
2020/12/02 01:25:17;;;;;;;23.10;14.87;;;;;;;1.34;83.12;101528.13;1778439;80;21360;-51
2020/12/02 01:28:06;;;;;;;22.45;14.95;;;;;;;1.34;83.20;101526.77;1778452;80;21005;-51
2020/12/02 01:30:37;;;;;;;22.62;16.27;;;;;;;1.35;83.22;101524.38;1749023;82;21033;-51
2020/12/02 01:33:12;;;;;;;22.42;16.17;;;;;;;1.38;83.17;101523.99;1771493;80;20986;-51
2020/12/02 01:35:39;;;;;;;20.62;15.08;;;;;;;1.36;83.13;101523.35;1755250;80;21022;-51
2020/12/02 01:38:07;;;;;;;23.15;14.58;;;;;;;1.36;83.21;101522.00;1778506;80;21263;-52
2020/12/02 01:40:35;;;;;;;23.65;15.58;;;;;;;1.36;83.30;101517.94;1778339;79;21588;-52
2020/12/02 01:43:08;;;;;;;21.02;15.08;;;;;;;1.38;83.30;101516.40;1778461;80;21034;-52
2020/12/02 01:45:52;;;;;;;22.60;15.90;;;;;;;1.44;83.42;101514.81;1840826;78;28610;-52
2020/12/02 01:48:54;;;;;;;21.20;15.20;;;;;;;1.39;83.54;101511.31;1816167;79;21628;-52
2020/12/02 01:52:01;;;;;;;22.15;14.90;;;;;;;1.44;83.58;101512.11;1815999;79;21085;-52
2020/12/02 01:54:37;;;;;;;21.97;13.60;;;;;;;1.43;83.63;101509.06;1749366;82;21010;-52
2020/12/02 01:57:26;;;;;;;22.90;14.73;;;;;;;1.38;83.71;101509.11;1771263;81;21047;-52
2020/12/02 02:00:05;;;;;;;19.32;14.45;;;;;;;1.36;83.78;101500.34;1780068;80;21537;-52
2020/12/02 02:02:46;;;;;;;17.92;13.88;;;;;;;1.40;83.87;101506.23;1770516;81;21195;-52
2020/12/02 02:05:32;;;;;;;19.62;14.38;;;;;;;1.42;83.74;101509.59;1749031;82;21202;-53
2020/12/02 02:07:59;;;;;;;18.87;13.35;;;;;;;1.43;83.69;101505.00;1771131;81;21030;-52
2020/12/02 02:10:37;;;;;;;19.90;14.45;;;;;;;1.42;83.77;101508.23;1771138;80;21010;-51
2020/12/02 02:13:12;;;;;;;18.50;13.65;;;;;;;1.47;83.76;101503.61;1771339;81;21751;-51
2020/12/02 02:15:53;;;;;;;18.20;12.80;;;;;;;1.46;83.56;101511.39;1771392;81;26728;-52
2020/12/02 02:18:25;;;;;;;20.05;13.28;;;;;;;1.47;83.51;101496.84;1761359;80;21387;-53
2020/12/02 02:21:01;;;;;;;17.10;12.70;;;;;;;1.47;83.51;101507.66;1771123;81;20944;-53
2020/12/02 02:23:29;;;;;;;18.32;12.88;;;;;;;1.48;83.52;101502.59;1771164;81;21058;-51
2020/12/02 02:26:14;;;;;;;16.77;12.30;;;;;;;1.50;83.52;101504.58;1748982;81;21023;-53
2020/12/02 02:29:02;;;;;;;16.32;12.10;;;;;;;1.50;83.54;101508.64;1771269;81;21594;-51
2020/12/02 02:31:34;;;;;;;16.82;12.53;;;;;;;1.50;83.48;101497.31;1771174;81;21153;-51
2020/12/02 02:34:02;;;;;;;16.12;12.18;;;;;;;1.49;83.39;101505.63;1770580;81;21066;-51
2020/12/02 02:36:29;;;;;;;18.75;12.70;;;;;;;1.48;83.27;101503.42;1749114;82;21057;-51
2020/12/02 02:38:58;;;;;;;19.20;12.18;;;;;;;1.43;83.20;101496.88;1779981;79;21045;-51
2020/12/02 02:41:27;;;;;;;19.92;13.30;;;;;;;1.42;83.38;101501.47;1741615;81;20994;-51
2020/12/02 02:43:54;;;;;;;18.85;12.98;;;;;;;1.42;83.17;101506.05;1740618;82;21272;-50
2020/12/02 02:46:22;;;;;;;18.10;13.13;;;;;;;1.38;83.06;101510.46;1740890;82;21074;-51
2020/12/02 02:48:49;;;;;;;20.30;14.38;;;;;;;1.32;82.89;101509.03;1740902;82;21296;-51
2020/12/02 02:51:16;;;;;;;19.23;14.07;;;;;;;1.29;82.83;101511.59;1782519;80;21661;-51
2020/12/02 02:53:47;;;;;;;20.65;13.25;;;;;;;1.27;82.67;101514.14;1769372;81;21655;-51
2020/12/02 02:56:16;;;;;;;23.20;15.70;;;;;;;1.22;82.53;101512.00;1781635;80;21364;-51
2020/12/02 02:58:44;;;;;;;25.60;15.68;;;;;;;1.17;82.31;101511.70;1783758;80;21020;-51
2020/12/02 03:01:12;;;;;;;22.27;14.60;;;;;;;1.15;82.30;101516.47;1783367;80;21389;-51
2020/12/02 03:03:39;;;;;;;22.52;14.98;;;;;;;1.17;82.24;101518.47;1783266;80;21628;-51
2020/12/02 03:06:08;;;;;;;23.30;15.63;;;;;;;1.16;82.16;101519.52;1783240;80;20994;-53
2020/12/02 03:08:36;;;;;;;26.65;17.30;;;;;;;1.13;81.91;101518.02;1783409;80;21251;-50
2020/12/02 03:11:06;;;;;;;26.48;16.73;;;;;;;1.09;81.81;101518.57;1783107;80;21022;-50
2020/12/02 03:13:41;;;;;;;25.92;16.40;;;;;;;1.09;81.72;101525.34;1783382;80;21050;-54
2020/12/02 03:16:44;;;;;;;25.20;16.25;;;;;;;1.10;81.63;101521.09;1783163;80;21037;-51
2020/12/02 03:19:24;;;;;;;28.45;18.50;;;;;;;1.09;81.41;101515.34;1783272;80;21476;-53
2020/12/02 03:21:56;;;;;;;24.75;16.10;;;;;;;1.03;81.28;101515.56;1783296;80;21363;-51
2020/12/02 03:24:24;;;;;;;28.98;18.67;;;;;;;1.03;81.29;101512.86;1783211;80;20994;-51
2020/12/02 03:26:52;;;;;;;25.17;17.45;;;;;;;1.02;81.37;101516.58;1783134;80;21031;-51
2020/12/02 03:29:22;;;;;;;28.27;17.82;;;;;;;1.06;81.40;101517.06;1783284;80;21053;-51
2020/12/02 03:31:50;;;;;;;24.57;17.90;;;;;;;1.07;81.46;101512.48;1783263;80;21045;-54
2020/12/02 03:34:19;;;;;;;29.02;18.30;;;;;;;1.09;81.39;101513.16;1783229;80;21428;-54
2020/12/02 03:36:57;;;;;;;27.00;16.70;;;;;;;1.03;81.16;101517.44;1787393;79;21050;-53
2020/12/02 03:39:25;;;;;;;23.27;16.77;;;;;;;0.99;80.96;101512.06;1796772;78;21101;-54
2020/12/02 03:41:52;;;;;;;27.13;17.98;;;;;;;0.94;81.04;101513.94;1796936;79;20979;-51
2020/12/02 03:44:20;;;;;;;26.93;18.02;;;;;;;0.93;81.04;101506.00;1795521;79;21109;-53
2020/12/02 03:46:47;;;;;;;31.55;19.95;;;;;;;0.89;81.06;101499.28;1785717;80;21609;-54
2020/12/02 03:49:15;;;;;;;25.62;16.07;;;;;;;0.85;80.96;101510.99;1764006;80;21007;-51
2020/12/02 03:51:43;;;;;;;24.55;15.98;;;;;;;0.80;81.02;101512.90;1778682;79;21042;-51
2020/12/02 03:54:10;;;;;;;28.38;19.12;;;;;;;0.77;81.01;101511.05;1753083;81;20995;-51
2020/12/02 03:56:37;;;;;;;33.23;20.55;;;;;;;0.77;81.15;101509.70;1753182;81;21047;-53
2020/12/02 03:59:05;;;;;;;32.80;20.72;;;;;;;0.77;81.12;101509.21;1753128;81;22450;-53
2020/12/02 04:01:33;;;;;;;35.10;19.23;;;;;;;0.77;81.05;101513.27;1752980;81;21039;-52
2020/12/02 04:04:00;;;;;;;34.25;19.17;;;;;;;0.69;80.87;101508.75;1752908;81;21043;-51
2020/12/02 04:06:28;;;;;;;34.83;20.80;;;;;;;0.67;80.89;101515.34;1753015;81;21697;-51
2020/12/02 04:08:55;;;;;;;34.60;21.85;;;;;;;0.66;81.00;101521.28;1752900;81;21070;-52
2020/12/02 04:11:23;;;;;;;31.37;19.75;;;;;;;0.66;80.92;101521.28;1753063;81;21272;-51
2020/12/02 04:13:52;;;;;;;36.55;21.30;;;;;;;0.67;80.82;101522.97;1753120;81;20948;-51
2020/12/02 04:16:20;;;;;;;31.87;19.87;;;;;;;0.67;80.74;101520.76;1753080;81;21023;-51
2020/12/02 04:18:47;;;;;;;31.27;18.75;;;;;;;0.65;80.63;101526.35;1753054;81;21593;-51
2020/12/02 04:21:24;;;;;;;31.45;18.15;;;;;;;0.61;80.34;101529.08;1753042;81;21355;-51
2020/12/02 04:23:53;;;;;;;30.52;17.05;;;;;;;0.56;80.00;101527.45;1752991;81;21190;-52
2020/12/02 04:26:22;;;;;;;29.70;19.15;;;;;;;0.48;80.04;101524.80;1752974;81;21059;-54
2020/12/02 04:28:49;;;;;;;32.88;20.35;;;;;;;0.49;80.31;101527.84;1752989;81;21050;-52
2020/12/02 04:31:18;;;;;;;32.33;19.80;;;;;;;0.51;80.32;101524.44;1753055;81;21034;-51
2020/12/02 04:33:46;;;;;;;32.80;18.95;;;;;;;0.56;80.29;101526.59;1752930;81;21613;-51
2020/12/02 04:36:14;;;;;;;29.42;19.27;;;;;;;0.57;80.25;101522.88;1753029;81;22804;-51
2020/12/02 04:38:41;;;;;;;27.52;18.80;;;;;;;0.58;80.42;101524.04;1753098;81;21566;-51
2020/12/02 04:41:13;;;;;;;32.70;20.50;;;;;;;0.62;80.51;101520.48;1752925;80;21015;-52
2020/12/02 04:43:45;;;;;;;32.05;19.95;;;;;;;0.66;80.43;101519.93;1752939;81;21039;-52
2020/12/02 04:46:21;;;;;;;33.65;19.92;;;;;;;0.66;80.35;101525.86;1761034;81;21062;-51
2020/12/02 04:49:04;;;;;;;32.23;17.20;;;;;;;0.68;80.34;101520.58;1846590;76;22353;-52
2020/12/02 04:51:32;;;;;;;32.13;19.30;;;;;;;0.59;80.47;101518.97;1816942;77;21045;-52
2020/12/02 04:53:59;;;;;;;33.02;19.32;;;;;;;0.55;80.55;101521.70;1816666;79;21270;-52
2020/12/02 04:56:28;;;;;;;35.08;20.77;;;;;;;0.54;80.60;101521.88;1816498;79;20990;-52
2020/12/02 04:58:58;;;;;;;29.45;19.10;;;;;;;0.53;80.85;101513.44;1816395;79;20966;-52
2020/12/02 05:01:33;;;;;;;30.82;17.45;;;;;;;0.50;80.87;101519.55;1832617;77;21034;-52
2020/12/02 05:04:19;;;;;;;28.80;18.52;;;;;;;0.48;80.93;101513.98;1847755;77;21006;-51
2020/12/02 05:06:51;;;;;;;33.80;19.70;;;;;;;0.47;81.02;101514.50;1797190;79;22352;-52
2020/12/02 05:09:24;;;;;;;34.78;19.40;;;;;;;0.49;81.12;101521.08;1765501;81;21037;-52
2020/12/02 05:11:59;;;;;;;31.80;18.27;;;;;;;0.48;81.18;101517.52;1763866;81;21616;-55
2020/12/02 05:14:35;;;;;;;30.90;18.97;;;;;;;0.53;81.29;101517.00;1797110;79;20978;-52
2020/12/02 05:17:25;;;;;;;27.67;18.55;;;;;;;0.51;81.32;101517.18;1796937;79;21080;-52
2020/12/02 05:20:18;;;;;;;30.10;16.82;;;;;;;0.52;81.47;101523.42;1796170;79;21690;-52
2020/12/02 05:22:50;;;;;;;22.17;13.58;;;;;;;0.56;81.61;101523.39;1796910;79;20982;-52
2020/12/02 05:25:32;;;;;;;34.27;21.55;;;;;;;0.57;81.67;101528.28;1796575;79;21018;-51
2020/12/02 05:28:07;;;;;;;29.10;17.25;;;;;;;0.58;81.70;101527.27;1765182;81;21571;-52
2020/12/02 05:30:42;;;;;;;41.73;27.50;;;;;;;0.62;81.59;101524.53;1846647;76;23046;-52
2020/12/02 05:33:17;;;;;;;57.17;36.95;;;;;;;0.57;81.62;101518.81;1816675;78;21010;-52
2020/12/02 05:36:11;;;;;;;85.40;49.90;;;;;;;0.59;81.71;101525.73;1816911;79;21109;-51
2020/12/02 05:38:55;;;;;;;61.15;36.95;;;;;;;0.58;81.72;101525.91;1815029;79;21046;-51
2020/12/02 05:41:24;;;;;;;40.78;25.82;;;;;;;0.57;81.74;101529.63;1782512;80;20996;-52
2020/12/02 05:44:06;;;;;;;40.38;27.70;;;;;;;0.58;81.90;101530.80;1754730;80;21035;-52
2020/12/02 05:46:41;;;;;;;43.00;28.70;;;;;;;0.60;81.84;101533.32;1781655;80;20960;-52
2020/12/02 05:49:13;;;;;;;31.65;18.87;;;;;;;0.60;81.85;101534.19;1782487;80;21357;-53
2020/12/02 05:51:41;;;;;;;25.00;15.85;;;;;;;0.61;81.88;101537.20;1770812;78;21060;-52
2020/12/02 05:54:15;;;;;;;26.35;16.12;;;;;;;0.56;81.70;101530.16;1735130;82;21017;-53
2020/12/02 05:56:46;;;;;;;28.30;18.80;;;;;;;0.56;81.89;101531.50;1735267;82;21585;-52
2020/12/02 05:59:16;;;;;;;42.48;24.07;;;;;;;0.57;81.89;101535.87;1735010;82;21074;-52
2020/12/02 06:01:45;;;;;;;44.70;23.30;;;;;;;0.57;82.01;101534.52;1714869;82;21378;-52
2020/12/02 06:04:14;;;;;;;47.90;26.33;;;;;;;0.57;82.05;101541.27;1734993;82;21077;-52
2020/12/02 06:06:54;;;;;;;59.00;30.75;;;;;;;0.58;82.03;101541.61;1735176;82;21611;-52
2020/12/02 06:09:45;;;;;;;115.97;59.33;;;;;;;0.59;82.02;101542.48;1735022;82;21081;-52
2020/12/02 06:12:23;;;;;;;104.27;48.33;;;;;;;0.66;82.11;101548.33;1735088;82;20998;-52
2020/12/02 06:14:51;;;;;;;65.12;33.00;;;;;;;0.69;81.91;101553.38;1735177;82;21374;-52
2020/12/02 06:17:30;;;;;;;86.15;37.30;;;;;;;0.70;81.78;101551.52;1734974;82;21028;-52
2020/12/02 06:20:00;;;;;;;62.23;29.45;;;;;;;0.66;81.55;101550.20;1735037;82;21033;-52
2020/12/02 06:22:52;;;;;;;49.83;26.17;;;;;;;0.64;81.59;101545.47;1734995;82;21061;-52
2020/12/02 06:25:54;;;;;;;67.95;33.00;;;;;;;0.62;81.56;101543.47;1734966;82;21045;-52
2020/12/02 06:28:36;;;;;;;46.15;24.00;;;;;;;0.59;81.61;101546.02;1732102;82;21594;-52
2020/12/02 06:31:25;;;;;;;38.53;21.25;;;;;;;0.61;81.67;101549.89;1734958;82;21073;-52
2020/12/02 06:33:52;;;;;;;27.67;17.17;;;;;;;0.60;81.50;101556.30;1735043;82;21688;-52
2020/12/02 06:36:32;;;;;;;33.10;19.25;;;;;;;0.54;81.41;101552.45;1734950;82;21013;-53
2020/12/02 06:39:15;;;;;;;29.65;16.17;;;;;;;0.51;81.40;101548.77;1734893;82;21061;-52
2020/12/02 06:41:43;;;;;;;28.10;17.50;;;;;;;0.48;81.32;101548.61;1773748;80;21367;-52
2020/12/02 06:44:34;;;;;;;28.45;18.05;;;;;;;0.42;81.33;101550.68;1753361;80;21387;-52
2020/12/02 06:47:16;;;;;;;28.40;17.98;;;;;;;0.42;81.50;101547.98;1781178;79;21058;-52
2020/12/02 06:49:43;;;;;;;40.88;21.80;;;;;;;0.44;81.62;101553.20;1800619;78;21041;-52
2020/12/02 06:52:23;;;;;;;26.82;17.32;;;;;;;0.43;81.59;101563.67;1802171;78;21032;-52
2020/12/02 06:54:50;;;;;;;33.98;20.48;;;;;;;0.41;81.56;101567.08;1784486;79;21417;-52
2020/12/02 06:57:27;;;;;;;39.42;25.37;;;;;;;0.42;81.66;101557.96;1774092;80;21038;-53
2020/12/02 07:00:16;;;;;;;43.98;27.13;;;;;;;0.49;81.67;101561.11;1774868;79;28835;-52
2020/12/02 07:02:53;;;;;;;35.75;22.90;;;;;;;0.46;81.67;101556.59;1754873;80;21049;-52
2020/12/02 07:05:32;;;;;;;45.80;28.02;;;;;;;0.48;81.64;101559.42;1755993;80;21398;-53
2020/12/02 07:08:17;;;;;;;30.20;20.37;;;;;;;0.48;81.50;101551.83;1774256;80;21589;-52
2020/12/02 07:11:02;;;;;;;42.38;22.73;;;;;;;0.49;81.60;101553.52;1728306;82;21612;-52
2020/12/02 07:13:33;;;;;;;39.92;22.35;;;;;;;0.51;81.70;101555.03;1732243;80;21733;-53
2020/12/02 07:16:12;;;;;;;32.95;21.42;;;;;;;0.52;81.67;101557.22;1747392;80;21070;-51
2020/12/02 07:18:48;;;;;;;27.82;16.87;;;;;;;0.53;81.76;101552.64;1752808;80;21209;-52
2020/12/02 07:21:21;;;;;;;36.80;22.30;;;;;;;0.56;81.83;101551.78;1689069;83;21050;-52
2020/12/02 07:23:48;;;;;;;39.30;23.83;;;;;;;0.57;81.66;101556.15;1682481;85;21062;-50
2020/12/02 07:26:17;;;;;;;38.23;23.73;;;;;;;0.55;81.47;101558.72;1703328;82;21098;-52
2020/12/02 07:28:44;;;;;;;31.70;20.05;;;;;;;0.52;81.39;101561.27;1696946;84;21960;-51
2020/12/02 07:31:20;;;;;;;34.48;20.57;;;;;;;0.50;81.42;101560.59;1690862;84;21391;-51
2020/12/02 07:34:08;;;;;;;29.90;20.40;;;;;;;0.49;81.31;101558.93;1681585;85;21035;-52
2020/12/02 07:36:35;;;;;;;40.25;23.73;;;;;;;0.51;81.43;101560.93;1698111;82;21078;-52
2020/12/02 07:39:17;;;;;;;35.13;21.42;;;;;;;0.51;81.39;101558.23;1687214;82;20994;-51
2020/12/02 07:42:08;;;;;;;75.37;43.13;;;;;;;0.49;81.48;101562.47;1665031;85;21150;-51
2020/12/02 07:44:55;;;;;;;43.80;25.55;;;;;;;0.52;81.61;101566.67;1703155;83;22239;-52
2020/12/02 07:47:23;;;;;;;46.55;30.60;;;;;;;0.57;81.63;101560.72;1702208;82;21077;-50
2020/12/02 07:50:13;;;;;;;50.88;31.25;;;;;;;0.60;81.54;101574.74;1709241;82;21062;-52
2020/12/02 07:52:41;;;;;;;38.78;24.87;;;;;;;0.61;81.67;101565.59;1702917;82;21133;-51
2020/12/02 07:55:16;;;;;;;38.33;24.55;;;;;;;0.63;81.64;101566.27;1706846;83;21090;-52
2020/12/02 07:57:48;;;;;;;35.05;23.10;;;;;;;0.65;81.56;101566.09;1704574;82;22337;-51
2020/12/02 08:00:32;;;;;;;36.10;22.42;;;;;;;0.69;81.25;101568.77;1697464;82;21047;-52
2020/12/02 08:02:59;;;;;;;33.98;22.40;;;;;;;0.67;81.16;101555.42;1687333;82;22262;-51
2020/12/02 08:05:52;;;;;;;36.70;23.60;;;;;;;0.65;81.15;101558.80;1690550;84;21075;-51
2020/12/02 08:08:21;;;;;;;37.70;21.77;;;;;;;0.67;81.13;101559.97;1697417;82;20981;-52
2020/12/02 08:11:10;;;;;;;38.38;24.50;;;;;;;0.71;81.12;101550.48;1706697;82;21379;-53
2020/12/02 08:13:53;;;;;;;41.60;23.73;;;;;;;0.74;80.97;101555.52;1703093;82;21108;-52
2020/12/02 08:16:32;;;;;;;58.33;33.83;;;;;;;0.77;80.92;101555.19;1699085;82;21767;-52
2020/12/02 08:19:09;;;;;;;41.15;24.27;;;;;;;0.78;81.02;101554.14;1696721;82;22394;-52
2020/12/02 08:21:35;;;;;;;49.18;25.48;;;;;;;0.81;80.81;101551.07;1697453;82;21141;-53
2020/12/02 08:24:43;;;;;;;43.87;24.82;;;;;;;0.78;80.80;101553.31;1700580;82;21369;-51
2020/12/02 08:27:18;;;;;;;43.10;23.00;;;;;;;0.77;80.94;101548.92;1693659;83;21063;-51
2020/12/02 08:29:50;;;;;;;41.83;23.45;;;;;;;0.77;80.84;101549.78;1690378;82;21094;-51
2020/12/02 08:32:26;;;;;;;42.78;25.35;;;;;;;0.76;80.80;101545.87;1697702;84;21475;-52
2020/12/02 08:35:03;;;;;;;47.23;27.73;;;;;;;0.79;80.87;101544.19;1698032;83;21074;-51
2020/12/02 08:37:38;;;;;;;37.38;23.47;;;;;;;0.83;80.83;101546.34;1690899;82;21205;-51
2020/12/02 08:40:39;;;;;;;46.20;27.40;;;;;;;0.86;80.85;101550.55;1698395;82;21022;-52
2020/12/02 08:43:38;;;;;;;36.53;25.37;;;;;;;0.88;80.83;101538.20;1679880;83;21681;-53
2020/12/02 08:46:22;;;;;;;46.60;24.82;;;;;;;0.87;80.76;101535.98;1696249;82;21059;-52
2020/12/02 08:48:58;;;;;;;39.30;26.27;;;;;;;0.92;80.73;101547.11;1698541;82;20991;-52
2020/12/02 08:51:30;;;;;;;40.12;23.15;;;;;;;0.94;80.68;101545.05;1677602;82;22121;-53
2020/12/02 08:54:03;;;;;;;45.35;25.92;;;;;;;0.92;80.41;101538.99;1690382;84;21023;-52
2020/12/02 08:56:35;;;;;;;65.32;36.90;;;;;;;0.89;80.48;101533.09;1698844;82;20995;-55
2020/12/02 08:59:08;;;;;;;59.90;32.63;;;;;;;0.89;80.37;101540.72;1702059;82;20996;-51
2020/12/02 09:01:43;;;;;;;46.13;27.13;;;;;;;0.90;80.48;101535.64;1703707;82;21007;-51
2020/12/02 09:04:20;;;;;;;43.25;25.37;;;;;;;1.02;80.53;101533.33;1854431;76;29096;-50
2020/12/02 09:06:49;;;;;;;43.78;24.40;;;;;;;1.01;80.17;101532.47;1830313;77;21648;-52
2020/12/02 09:09:18;;;;;;;42.20;25.70;;;;;;;0.97;79.84;101529.83;1823408;77;21137;-51
2020/12/02 09:11:50;;;;;;;47.62;26.52;;;;;;;0.94;79.77;101535.58;1830076;76;21052;-50
2020/12/02 09:14:20;;;;;;;42.70;25.82;;;;;;;1.00;79.86;101533.52;1823678;77;21065;-50
2020/12/02 09:16:54;;;;;;;42.80;24.85;;;;;;;1.06;79.74;101527.03;1826644;76;20989;-50
2020/12/02 09:19:22;;;;;;;41.42;23.40;;;;;;;1.08;79.78;101525.83;1830279;77;20957;-52
2020/12/02 09:21:50;;;;;;;38.45;24.60;;;;;;;1.11;79.85;101512.45;1792141;78;21498;-52
2020/12/02 09:24:25;;;;;;;33.50;21.42;;;;;;;1.12;79.71;101519.55;1775593;78;21525;-53
2020/12/02 09:27:01;;;;;;;49.95;27.95;;;;;;;1.13;79.70;101515.30;1768172;80;21033;-51
2020/12/02 09:29:31;;;;;;;36.73;21.85;;;;;;;1.17;79.65;101519.82;1774719;78;20985;-52
2020/12/02 09:34:38;;;;;;;41.45;23.90;;;;;;;1.25;78.99;101512.98;1812884;77;29053;-53
2020/12/02 09:37:18;;;;;;;42.95;26.20;;;;;;;1.20;79.21;101511.33;1778494;79;21004;-53
2020/12/02 09:39:46;;;;;;;65.70;30.72;;;;;;;1.26;79.15;101513.31;1728523;80;21353;-53
2020/12/02 09:43:10;;;;;;;41.63;26.48;;;;;;;1.29;79.18;101514.30;1745561;80;20962;-53
2020/12/02 09:46:09;;;;;;;41.05;25.32;;;;;;;1.30;79.13;101508.36;1756985;80;21069;-55
2020/12/02 09:48:50;;;;;;;44.90;26.40;;;;;;;1.41;79.10;101511.95;1780515;78;27715;-52
2020/12/02 09:51:23;;;;;;;54.18;33.25;;;;;;;1.41;78.80;101507.07;1740976;79;21555;-53
2020/12/02 09:53:53;;;;;;;33.58;24.77;;;;;;;1.42;78.76;101502.82;1731068;82;21193;-52
2020/12/02 09:56:27;;;;;;;34.43;22.52;;;;;;;1.42;78.36;101512.82;1730107;82;21374;-51
2020/12/02 09:58:58;;;;;;;43.68;24.27;;;;;;;1.32;78.00;101509.86;1732716;80;27619;-52
2020/12/02 10:02:01;;;;;;;45.28;28.30;;;;;;;1.27;78.03;101513.66;1730767;82;20999;-54
2020/12/02 10:05:05;;;;;;;36.30;24.23;;;;;;;1.25;78.30;101510.27;1691273;83;20998;-52
2020/12/02 10:08:02;;;;;;;45.52;27.73;;;;;;;1.29;78.49;101505.34;1715555;82;21448;-54
2020/12/02 10:10:54;;;;;;;44.03;24.35;;;;;;;1.32;78.33;101508.50;1692873;83;20993;-52
2020/12/02 10:14:00;;;;;;;53.38;31.27;;;;;;;1.32;78.23;101505.80;1698920;83;21017;-52
2020/12/02 10:17:01;;;;;;;60.90;37.30;;;;;;;1.32;78.42;101502.26;1694886;82;21019;-52
2020/12/02 10:19:54;;;;;;;50.50;31.65;;;;;;;1.35;78.21;101507.30;1697214;83;20947;-53
2020/12/02 10:22:57;;;;;;;44.40;26.20;;;;;;;1.32;78.17;101508.50;1728295;80;21320;-52
2020/12/02 10:25:45;;;;;;;43.50;28.23;;;;;;;1.26;78.39;101502.98;1703654;83;21031;-53
2020/12/02 10:28:41;;;;;;;28.67;20.15;;;;;;;1.23;78.29;101504.22;1729289;82;21429;-52
2020/12/02 10:31:23;;;;;;;32.90;21.68;;;;;;;1.20;77.79;101505.42;1691620;83;20986;-52
2020/12/02 10:33:58;;;;;;;39.48;25.32;;;;;;;1.06;77.70;101501.32;1728892;81;20983;-51
2020/12/02 10:36:33;;;;;;;40.17;28.20;;;;;;;1.00;78.25;101495.64;1710314;82;21507;-52
2020/12/02 10:39:11;;;;;;;38.15;27.48;;;;;;;1.08;78.59;101504.70;1702200;82;20998;-52
2020/12/02 10:42:20;;;;;;;31.05;19.95;;;;;;;1.15;78.72;101509.70;1681974;83;21007;-52
2020/12/02 10:45:12;;;;;;;40.23;27.90;;;;;;;1.20;78.66;101501.36;1686347;83;20960;-52
2020/12/02 10:48:01;;;;;;;33.70;22.77;;;;;;;1.21;78.61;101496.78;1661664;83;20978;-52
2020/12/02 10:50:31;;;;;;;33.55;23.42;;;;;;;1.25;78.76;101489.97;1688460;83;21386;-52
2020/12/02 10:53:10;;;;;;;33.92;24.52;;;;;;;1.31;78.53;101508.69;1717511;82;21563;-52
2020/12/02 10:55:39;;;;;;;39.10;28.42;;;;;;;1.30;78.13;101493.47;1713087;81;21000;-51
2020/12/02 10:58:18;;;;;;;30.27;21.90;;;;;;;1.29;78.18;101506.17;1718803;81;21581;-51
2020/12/02 11:00:53;;;;;;;37.25;24.02;;;;;;;1.30;78.05;101502.45;1712994;81;21188;-51
2020/12/02 11:03:30;;;;;;;29.25;21.37;;;;;;;1.28;77.98;101498.23;1709973;81;21206;-53
2020/12/02 11:06:20;;;;;;;34.85;24.87;;;;;;;1.27;78.03;101500.12;1717248;81;21046;-51
2020/12/02 11:09:24;;;;;;;34.85;25.20;;;;;;;1.27;78.13;101495.20;1719062;81;21028;-52
2020/12/02 11:12:08;;;;;;;39.85;24.50;;;;;;;1.33;78.28;101494.44;1712674;82;21059;-51
2020/12/02 11:14:45;;;;;;;32.90;22.95;;;;;;;1.35;78.04;101498.66;1645674;83;21034;-51
2020/12/02 11:17:42;;;;;;;32.58;22.67;;;;;;;1.37;77.92;101497.11;1716597;81;21574;-52
2020/12/02 11:20:49;;;;;;;38.95;24.50;;;;;;;1.36;77.89;101490.87;1721102;81;20958;-52
2020/12/02 11:23:42;;;;;;;36.45;23.62;;;;;;;1.35;78.03;101489.70;1721964;81;21000;-52
2020/12/02 11:26:32;;;;;;;32.53;21.50;;;;;;;1.37;78.29;101492.55;1677328;81;20981;-51
2020/12/02 11:29:00;;;;;;;73.62;42.88;;;;;;;1.40;78.27;101485.08;1720664;81;20979;-51
2020/12/02 11:31:53;;;;;;;69.50;42.53;;;;;;;1.45;78.15;101485.37;1741800;81;21386;-51
2020/12/02 11:34:32;;;;;;;63.42;38.02;;;;;;;1.49;78.02;101491.56;1724122;81;21000;-52
2020/12/02 11:37:23;;;;;;;63.58;42.10;;;;;;;1.59;78.16;101489.94;1802923;77;22779;-52
2020/12/02 11:40:14;;;;;;;67.37;47.88;;;;;;;1.58;78.10;101495.02;1723943;80;20977;-51
2020/12/02 11:43:08;;;;;;;38.65;25.85;;;;;;;1.58;78.04;101493.66;1736881;81;21280;-52
2020/12/02 11:45:39;;;;;;;37.23;26.87;;;;;;;1.60;78.01;101483.99;1744150;81;21014;-52
2020/12/02 11:48:27;;;;;;;47.00;32.67;;;;;;;1.62;77.85;101483.31;1706557;82;21012;-52
2020/12/02 11:51:18;;;;;;;38.10;26.85;;;;;;;1.63;78.00;101489.89;1703097;83;20955;-50
2020/12/02 11:53:50;;;;;;;40.52;25.55;;;;;;;1.68;78.02;101485.25;1687773;84;21004;-52
2020/12/02 11:56:35;;;;;;;40.50;27.48;;;;;;;1.66;77.82;101485.97;1687708;84;22085;-53
2020/12/02 11:59:15;;;;;;;44.65;29.07;;;;;;;1.63;77.98;101487.67;1690867;84;21006;-50
2020/12/02 12:01:57;;;;;;;45.73;29.57;;;;;;;1.61;78.06;101483.80;1692150;84;21022;-51
2020/12/02 12:04:56;;;;;;;43.68;29.32;;;;;;;1.63;78.27;101484.47;1694186;84;20997;-52